createdAt,value
2023-04-19T00:01:46.037Z,52.90
2023-04-19T00:04:15.323Z,52.90
2023-04-19T00:06:43.632Z,52.90
2023-04-19T00:09:11.452Z,52.90
2023-04-19T00:11:39.336Z,52.90
2023-04-19T00:14:08.622Z,52.90
2023-04-19T00:16:36.837Z,52.90
2023-04-19T00:19:04.902Z,52.90
2023-04-19T00:21:32.763Z,52.90
2023-04-19T00:24:00.588Z,52.90
2023-04-19T00:26:28.472Z,52.90
2023-04-19T00:28:56.332Z,52.90
2023-04-19T00:31:25.665Z,52.90
2023-04-19T00:33:53.574Z,52.90
2023-04-19T00:36:21.452Z,52.90
2023-04-19T00:38:49.320Z,52.90
2023-04-19T00:41:17.584Z,52.90
2023-04-19T00:43:45.861Z,53.00
2023-04-19T00:46:15.302Z,52.90
2023-04-19T00:48:44.584Z,52.90
2023-04-19T00:51:12.536Z,53.00
2023-04-19T00:53:41.484Z,52.90
2023-04-19T00:56:10.836Z,52.90
2023-04-19T00:58:39.632Z,52.90
2023-04-19T01:01:07.610Z,52.90
2023-04-19T01:03:36.443Z,52.90
2023-04-19T01:06:06.142Z,52.90
2023-04-19T01:08:34.042Z,52.90
2023-04-19T01:11:02.020Z,52.90
2023-04-19T01:13:30.057Z,52.90
2023-04-19T01:15:58.655Z,53.00
2023-04-19T01:18:29.372Z,52.90
2023-04-19T01:20:57.246Z,52.90
2023-04-19T01:23:26.528Z,52.90
2023-04-19T01:25:54.421Z,52.90
2023-04-19T01:28:22.273Z,52.90
2023-04-19T01:30:51.144Z,52.90
2023-04-19T01:33:19.053Z,52.90
2023-04-19T01:35:48.077Z,53.10
2023-04-19T01:38:16.054Z,52.90
2023-04-19T01:40:45.914Z,52.90
2023-04-19T01:43:15.249Z,52.90
2023-04-19T01:45:43.085Z,53.50
2023-04-19T01:48:10.983Z,52.90
2023-04-19T01:50:38.846Z,52.90
2023-04-19T01:53:06.708Z,52.90
2023-04-19T01:55:35.069Z,52.90
2023-04-19T01:58:04.399Z,52.90
2023-04-19T02:00:32.310Z,52.90
2023-04-19T02:03:00.409Z,52.90
2023-04-19T02:05:28.377Z,52.90
2023-04-19T02:07:56.317Z,52.90
2023-04-19T02:10:24.366Z,52.90
2023-04-19T02:12:52.213Z,52.90
2023-04-19T02:15:21.514Z,52.90
2023-04-19T02:17:49.517Z,52.90
2023-04-19T02:20:17.529Z,52.90
2023-04-19T02:22:45.440Z,53.00
2023-04-19T02:25:13.784Z,52.90
2023-04-19T02:27:41.644Z,52.90
2023-04-19T02:30:10.549Z,53.00
2023-04-19T02:32:39.821Z,52.90
2023-04-19T02:35:08.366Z,52.90
2023-04-19T02:37:36.258Z,52.90
2023-04-19T02:40:05.401Z,53.00
2023-04-19T02:42:33.278Z,52.90
2023-04-19T02:45:01.158Z,52.90
2023-04-19T02:47:29.105Z,52.90
2023-04-19T02:49:58.318Z,53.00
2023-04-19T02:52:27.786Z,52.90
2023-04-19T02:54:55.633Z,53.50
2023-04-19T02:57:23.845Z,52.90
2023-04-19T02:59:51.682Z,52.90
2023-04-19T03:02:19.748Z,52.90
2023-04-19T03:04:48.504Z,52.90
2023-04-19T03:07:17.768Z,52.90
2023-04-19T03:09:45.780Z,52.90
2023-04-19T03:12:13.744Z,52.90
2023-04-19T03:14:41.701Z,53.00
2023-04-19T03:17:09.557Z,52.90
2023-04-19T03:19:37.395Z,53.00
2023-04-19T03:22:05.268Z,52.90
2023-04-19T03:24:37.062Z,52.90
2023-04-19T03:27:06.159Z,52.90
2023-04-19T03:29:34.194Z,52.90
2023-04-19T03:32:02.259Z,52.90
2023-04-19T03:34:30.168Z,52.90
2023-04-19T03:36:58.125Z,52.90
2023-04-19T03:39:26.052Z,53.00
2023-04-19T03:41:55.294Z,52.90
2023-04-19T03:44:23.192Z,52.90
2023-04-19T03:46:51.068Z,52.90
2023-04-19T03:49:18.965Z,52.90
2023-04-19T03:51:46.814Z,53.00
2023-04-19T03:54:14.788Z,52.90
2023-04-19T03:56:43.011Z,52.90
2023-04-19T03:59:12.283Z,53.50
2023-04-19T04:01:42.162Z,53.00
2023-04-19T04:04:11.916Z,52.90
2023-04-19T04:06:39.955Z,53.00
2023-04-19T04:09:07.860Z,53.00
2023-04-19T04:11:35.746Z,52.90
2023-04-19T04:14:03.627Z,52.90
2023-04-19T04:16:32.892Z,52.90
2023-04-19T04:19:00.809Z,52.90
2023-04-19T04:21:28.643Z,53.00
2023-04-19T04:23:56.757Z,53.00
2023-04-19T04:26:25.546Z,52.90
2023-04-19T04:28:53.755Z,52.90
2023-04-19T04:31:21.775Z,52.90
2023-04-19T04:33:53.165Z,52.90
2023-04-19T04:36:21.086Z,52.90
2023-04-19T04:38:48.981Z,52.90
2023-04-19T04:41:18.026Z,52.90
2023-04-19T04:43:58.581Z,53.00
2023-04-19T04:46:36.418Z,52.90
2023-04-19T04:49:05.628Z,52.90
2023-04-19T04:51:33.483Z,52.80
2023-04-19T04:54:01.400Z,53.00
2023-04-19T04:56:29.330Z,52.90
2023-04-19T04:58:57.532Z,52.90
2023-04-19T05:01:25.404Z,53.00
2023-04-19T05:03:53.657Z,52.90
2023-04-19T05:06:22.848Z,52.90
2023-04-19T05:08:50.739Z,52.90
2023-04-19T05:11:18.685Z,52.80
2023-04-19T05:13:46.511Z,52.90
2023-04-19T05:16:14.470Z,52.90
2023-04-19T05:18:42.331Z,52.90
2023-04-19T05:21:10.502Z,52.90
2023-04-19T05:23:39.851Z,52.90
2023-04-19T05:26:07.728Z,52.90
2023-04-19T05:28:35.568Z,52.90
2023-04-19T05:31:03.477Z,52.90
2023-04-19T05:33:31.424Z,52.90
2023-04-19T05:35:59.291Z,53.00
2023-04-19T05:38:27.228Z,52.90
2023-04-19T05:40:56.420Z,52.90
2023-04-19T05:43:24.325Z,52.90
2023-04-19T05:45:52.197Z,52.90
2023-04-19T05:48:20.091Z,52.90
2023-04-19T05:50:47.928Z,52.90
2023-04-19T05:53:15.798Z,52.90
2023-04-19T05:55:45.513Z,52.90
2023-04-19T05:58:14.746Z,52.90
2023-04-19T06:00:42.726Z,52.90
2023-04-19T06:03:11.171Z,52.90
2023-04-19T06:05:40.354Z,52.90
2023-04-19T06:08:09.425Z,52.90
2023-04-19T06:10:51.797Z,52.90
2023-04-19T06:13:22.355Z,52.90
2023-04-19T06:15:50.461Z,52.90
2023-04-19T06:18:19.571Z,52.90
2023-04-19T06:20:48.340Z,52.90
2023-04-19T06:23:18.282Z,52.90
2023-04-19T06:25:48.603Z,52.90
2023-04-19T06:28:16.565Z,52.90
2023-04-19T06:30:45.933Z,52.90
2023-04-19T06:33:13.860Z,52.90
2023-04-19T06:35:41.724Z,52.90
2023-04-19T06:38:09.595Z,52.90
2023-04-19T06:40:37.399Z,52.90
2023-04-19T06:43:05.768Z,52.90
2023-04-19T06:45:34.009Z,52.90
2023-04-19T06:48:03.421Z,52.90
2023-04-19T06:50:31.632Z,52.90
2023-04-19T06:52:59.638Z,52.90
2023-04-19T06:55:27.483Z,52.90
2023-04-19T06:57:55.538Z,52.90
2023-04-19T07:00:24.118Z,53.00
2023-04-19T07:02:52.363Z,53.60
2023-04-19T07:05:22.004Z,52.90
2023-04-19T07:07:49.909Z,52.90
2023-04-19T07:10:18.010Z,52.90
2023-04-19T07:12:46.168Z,52.90
2023-04-19T07:15:14.126Z,52.90
2023-04-19T07:17:42.416Z,52.90
2023-04-19T07:20:11.148Z,52.90
2023-04-19T07:22:40.335Z,52.90
2023-04-19T07:25:09.302Z,52.90
2023-04-19T07:27:37.231Z,52.90
2023-04-19T07:30:05.904Z,52.90
2023-04-19T07:32:33.917Z,52.90
2023-04-19T07:35:02.302Z,52.90
2023-04-19T07:37:31.134Z,52.90
2023-04-19T07:40:00.463Z,52.90
2023-04-19T07:42:30.595Z,52.90
2023-04-19T07:44:59.589Z,52.90
2023-04-19T07:47:27.461Z,52.90
2023-04-19T07:49:56.792Z,52.90
2023-04-19T07:52:24.690Z,52.90
2023-04-19T07:54:52.589Z,53.50
2023-04-19T07:57:21.851Z,52.90
2023-04-19T07:59:49.772Z,52.90
2023-04-19T08:02:19.190Z,52.90
2023-04-19T08:04:49.939Z,52.90
2023-04-19T08:07:17.904Z,52.90
2023-04-19T08:09:45.845Z,52.90
2023-04-19T08:12:23.107Z,52.90
2023-04-19T08:15:13.530Z,52.90
2023-04-19T08:17:48.273Z,52.90
2023-04-19T08:20:16.233Z,52.90
2023-04-19T08:22:44.369Z,52.90
2023-04-19T08:25:12.450Z,52.90
2023-04-19T08:27:40.279Z,52.90
2023-04-19T08:30:11.028Z,52.90
2023-04-19T08:32:39.057Z,52.90
2023-04-19T08:35:08.362Z,52.90
2023-04-19T08:37:36.314Z,53.00
2023-04-19T08:40:05.500Z,52.90
2023-04-19T08:42:36.741Z,52.90
2023-04-19T08:47:45.290Z,52.90
2023-04-19T08:50:33.591Z,53.00
2023-04-19T08:53:24.215Z,53.00
2023-04-19T08:58:45.892Z,52.90
2023-04-19T09:01:34.033Z,52.90
2023-04-19T09:04:26.015Z,53.00
2023-04-19T09:06:55.282Z,52.90
2023-04-19T09:11:55.580Z,53.00
2023-04-19T09:14:24.110Z,53.00
2023-04-19T09:16:52.949Z,53.00
2023-04-19T09:19:25.282Z,53.00
2023-04-19T09:21:54.754Z,53.00
2023-04-19T09:27:12.042Z,53.00
2023-04-19T09:29:40.185Z,53.00
2023-04-19T09:32:08.350Z,53.00
2023-04-19T09:34:43.315Z,53.00
2023-04-19T09:37:24.879Z,53.00
2023-04-19T09:40:04.608Z,53.00
2023-04-19T09:43:05.242Z,53.00
2023-04-19T09:45:43.996Z,53.00
2023-04-19T09:48:13.052Z,53.00
2023-04-19T09:50:59.765Z,53.00
2023-04-19T09:53:34.108Z,53.00
2023-04-19T09:56:04.198Z,53.00
2023-04-19T09:58:48.937Z,53.00
2023-04-19T10:01:22.598Z,53.00
2023-04-19T10:03:52.889Z,53.00
2023-04-19T10:08:56.150Z,53.00
2023-04-19T10:11:25.211Z,53.00
2023-04-19T10:13:55.778Z,53.00
2023-04-19T10:16:23.944Z,53.00
2023-04-19T10:18:52.687Z,53.00
2023-04-19T10:21:22.781Z,53.00
2023-04-19T10:23:51.014Z,53.00
2023-04-19T10:26:18.908Z,53.00
2023-04-19T10:28:48.338Z,53.00
2023-04-19T10:31:16.439Z,53.00
2023-04-19T10:33:44.365Z,53.00
2023-04-19T10:36:15.768Z,53.00
2023-04-19T10:38:47.905Z,53.00
2023-04-19T10:41:17.866Z,53.00
2023-04-19T10:43:48.064Z,53.00
2023-04-19T10:46:36.861Z,53.00
2023-04-19T10:49:05.935Z,52.90
2023-04-19T10:51:36.432Z,53.00
2023-04-19T10:54:06.748Z,53.00
2023-04-19T10:57:05.817Z,53.00
2023-04-19T10:59:34.717Z,53.00
2023-04-19T11:02:03.876Z,53.00
2023-04-19T11:05:03.806Z,53.00
2023-04-19T11:07:39.598Z,53.00
2023-04-19T11:10:11.272Z,53.00
2023-04-19T11:12:42.967Z,53.00
2023-04-19T11:15:11.856Z,53.00
2023-04-19T11:17:39.882Z,53.00
2023-04-19T11:20:10.773Z,53.00
2023-04-19T11:22:41.065Z,53.00
2023-04-19T11:25:13.054Z,53.00
2023-04-19T11:27:41.726Z,52.90
2023-04-19T11:30:12.165Z,53.00
2023-04-19T11:32:46.646Z,53.00
2023-04-19T11:35:14.902Z,53.00
2023-04-19T11:37:42.761Z,53.00
2023-04-19T11:40:16.660Z,53.00
2023-04-19T11:42:44.872Z,53.00
2023-04-19T11:45:25.938Z,52.90
2023-04-19T11:47:57.065Z,53.00
2023-04-19T11:50:46.637Z,53.00
2023-04-19T11:53:17.042Z,53.00
2023-04-19T11:55:47.590Z,53.00
2023-04-19T11:58:30.066Z,53.00
2023-04-19T12:01:00.922Z,53.60
2023-04-19T12:03:29.246Z,53.00
2023-04-19T12:05:58.986Z,53.00
2023-04-19T12:08:34.295Z,53.00
2023-04-19T12:11:04.423Z,53.00
2023-04-19T12:13:33.113Z,53.00
2023-04-19T12:16:01.721Z,53.00
2023-04-19T12:18:29.930Z,53.00
2023-04-19T12:21:00.812Z,53.00
2023-04-19T12:23:29.511Z,53.00
2023-04-19T12:25:57.457Z,53.00
2023-04-19T12:28:26.707Z,53.00
2023-04-19T12:30:54.586Z,53.00
2023-04-19T12:33:23.785Z,53.00
2023-04-19T12:35:52.107Z,53.00
2023-04-19T12:38:19.980Z,53.00
2023-04-19T12:40:47.886Z,53.00
2023-04-19T12:43:15.710Z,53.00
2023-04-19T12:45:44.965Z,53.00
2023-04-19T12:48:12.850Z,53.00
2023-04-19T12:50:40.700Z,53.00
2023-04-19T12:53:09.381Z,53.00
2023-04-19T12:55:37.272Z,53.00
2023-04-19T12:58:05.136Z,53.00
2023-04-19T13:00:33.014Z,53.00
2023-04-19T13:03:02.352Z,53.00
2023-04-19T13:05:30.572Z,53.00
2023-04-19T13:07:58.428Z,53.00
2023-04-19T13:10:26.310Z,53.00
2023-04-19T13:12:54.179Z,53.00
2023-04-19T13:15:22.329Z,53.00
2023-04-19T13:17:50.202Z,53.10
2023-04-19T13:20:20.390Z,53.10
2023-04-19T13:22:48.238Z,53.00
2023-04-19T13:25:16.075Z,53.10
2023-04-19T13:27:44.022Z,53.00
2023-04-19T13:30:12.723Z,53.10
2023-04-19T13:32:40.683Z,53.10
2023-04-19T13:35:09.482Z,53.10
2023-04-19T13:37:40.253Z,53.00
2023-04-19T13:40:18.858Z,53.00
2023-04-19T13:42:47.482Z,53.10
2023-04-19T13:45:15.386Z,53.10
2023-04-19T13:47:43.286Z,53.10
2023-04-19T13:50:12.793Z,53.10
2023-04-19T13:52:42.052Z,53.10
2023-04-19T13:55:10.650Z,53.00
2023-04-19T13:57:38.883Z,53.10
2023-04-19T14:00:08.407Z,53.10
2023-04-19T14:02:36.871Z,53.70
2023-04-19T14:05:05.381Z,53.10
2023-04-19T14:07:33.853Z,53.10
2023-04-19T14:10:03.360Z,53.10
2023-04-19T14:12:31.238Z,53.10
2023-04-19T14:14:59.190Z,53.10
2023-04-19T14:17:27.532Z,53.10
2023-04-19T14:19:56.143Z,53.10
2023-04-19T14:22:24.006Z,53.10
2023-04-19T14:24:51.876Z,53.10
2023-04-19T14:27:21.233Z,53.10
2023-04-19T14:29:49.114Z,53.10
2023-04-19T14:32:25.887Z,53.10
2023-04-19T14:34:55.720Z,53.10
2023-04-19T14:37:24.971Z,53.10
2023-04-19T14:39:53.106Z,53.10
2023-04-19T14:42:23.092Z,53.10
2023-04-19T14:44:52.476Z,53.10
2023-04-19T14:47:21.178Z,53.10
2023-04-19T14:49:49.223Z,53.10
2023-04-19T14:52:17.236Z,53.10
2023-04-19T14:54:45.160Z,53.10
2023-04-19T14:57:13.094Z,53.10
2023-04-19T14:59:42.315Z,53.10
2023-04-19T15:02:13.228Z,53.10
2023-04-19T15:04:41.969Z,53.10
2023-04-19T15:07:10.228Z,53.10
2023-04-19T15:09:38.197Z,53.10
2023-04-19T15:12:06.318Z,53.10
2023-04-19T15:14:34.218Z,53.10
2023-04-19T15:17:04.083Z,53.10
2023-04-19T15:19:32.374Z,53.10
2023-04-19T15:22:00.254Z,53.10
2023-04-19T15:24:28.122Z,53.10
2023-04-19T15:26:56.563Z,53.10
2023-04-19T15:29:24.521Z,53.10
2023-04-19T15:31:52.482Z,53.20
2023-04-19T15:34:21.967Z,53.10
2023-04-19T15:36:49.810Z,53.10
2023-04-19T15:39:18.019Z,53.10
2023-04-19T15:41:46.039Z,53.20
2023-04-19T15:44:14.121Z,53.10
2023-04-19T15:46:42.015Z,53.10
2023-04-19T15:49:09.961Z,53.10
2023-04-19T15:51:39.359Z,53.10
2023-04-19T15:54:07.405Z,53.10
2023-04-19T15:56:35.355Z,53.10
2023-04-19T15:59:03.245Z,53.10
2023-04-19T16:01:31.135Z,53.10
2023-04-19T16:03:59.081Z,53.10
2023-04-19T16:06:27.367Z,53.10
2023-04-19T16:08:56.672Z,53.10
2023-04-19T16:11:24.582Z,53.10
2023-04-19T16:13:52.466Z,53.10
2023-04-19T16:16:20.449Z,53.10
2023-04-19T16:18:48.341Z,53.10
2023-04-19T16:21:16.185Z,53.10
2023-04-19T16:23:44.075Z,53.10
2023-04-19T16:26:13.351Z,53.10
2023-04-19T16:28:41.806Z,53.10
2023-04-19T16:31:09.701Z,53.10
2023-04-19T16:33:37.557Z,53.10
2023-04-19T16:36:06.075Z,53.10
2023-04-19T16:38:33.936Z,53.10
2023-04-19T16:41:04.484Z,53.10
2023-04-19T16:43:33.995Z,53.10
2023-04-19T16:46:01.979Z,53.10
2023-04-19T16:48:29.853Z,53.10
2023-04-19T16:50:57.715Z,53.10
2023-04-19T16:53:25.596Z,53.10
2023-04-19T16:55:55.704Z,53.10
2023-04-19T16:58:24.330Z,53.10
2023-04-19T17:00:53.548Z,53.10
2023-04-19T17:03:21.871Z,53.10
2023-04-19T17:05:49.911Z,53.10
2023-04-19T17:08:17.748Z,53.10
2023-04-19T17:10:45.621Z,53.10
2023-04-19T17:13:13.506Z,53.10
2023-04-19T17:15:41.515Z,53.10
2023-04-19T17:18:10.865Z,53.10
2023-04-19T17:20:38.748Z,53.10
2023-04-19T17:23:06.639Z,53.10
2023-04-19T17:25:34.530Z,53.10
2023-04-19T17:28:02.547Z,53.70
2023-04-19T17:30:30.576Z,53.10
2023-04-19T17:32:58.560Z,53.10
2023-04-19T17:35:28.000Z,53.10
2023-04-19T17:37:55.922Z,53.10
2023-04-19T17:40:23.786Z,53.10
2023-04-19T17:42:51.646Z,53.10
2023-04-19T17:45:19.665Z,53.20
2023-04-19T17:47:47.609Z,53.10
2023-04-19T17:50:15.927Z,53.10
2023-04-19T17:52:45.193Z,53.10
2023-04-19T17:55:13.044Z,53.10
2023-04-19T17:57:41.161Z,53.10
2023-04-19T18:00:11.820Z,53.10
2023-04-19T18:02:40.457Z,53.70
2023-04-19T18:05:08.945Z,53.10
2023-04-19T18:07:37.400Z,53.10
2023-04-19T18:10:07.681Z,53.10
2023-04-19T18:12:35.740Z,53.10
2023-04-19T18:15:04.016Z,53.20
2023-04-19T18:17:31.865Z,53.10
2023-04-19T18:19:59.838Z,53.10
2023-04-19T18:22:27.956Z,53.10
2023-04-19T18:24:55.834Z,53.10
2023-04-19T18:27:25.046Z,53.10
2023-04-19T18:29:53.098Z,53.20
2023-04-19T18:32:21.910Z,53.10
2023-04-19T18:34:49.919Z,53.10
2023-04-19T18:37:18.188Z,53.10
2023-04-19T18:39:46.460Z,53.10
2023-04-19T18:42:14.349Z,53.10
2023-04-19T18:44:53.651Z,53.10
2023-04-19T18:47:22.450Z,53.10
2023-04-19T18:50:03.711Z,53.20
2023-04-19T18:52:32.769Z,53.10
2023-04-19T18:55:00.729Z,53.10
2023-04-19T18:57:30.483Z,53.10
2023-04-19T19:00:05.158Z,53.00
2023-04-19T19:02:34.114Z,53.10
2023-04-19T19:05:02.664Z,53.00
2023-04-19T19:10:09.907Z,53.00
2023-04-19T19:12:44.686Z,53.00
2023-04-19T19:15:14.978Z,53.00
2023-04-19T19:17:43.234Z,53.00
2023-04-19T19:20:11.867Z,53.00
2023-04-19T19:22:40.306Z,53.00
2023-04-19T19:25:08.870Z,53.00
2023-04-19T19:27:37.654Z,53.00
2023-04-19T19:30:07.597Z,52.90
2023-04-19T19:32:36.972Z,53.10
2023-04-19T19:35:08.119Z,52.90
2023-04-19T19:37:36.808Z,52.90
2023-04-19T19:40:07.268Z,52.90
2023-04-19T19:42:35.487Z,52.90
2023-04-19T19:45:04.156Z,52.90
2023-04-19T19:47:35.317Z,52.90
2023-04-19T19:50:48.685Z,52.90
2023-04-19T19:52:54.659Z,52.90
2023-04-19T19:55:22.745Z,52.90
2023-04-19T20:02:55.809Z,52.90
2023-04-19T20:05:30.188Z,52.80
2023-04-19T20:08:08.112Z,52.80
2023-04-19T20:10:36.111Z,52.80
2023-04-19T20:13:06.093Z,52.80
2023-04-19T20:15:34.478Z,52.80
2023-04-19T20:18:02.627Z,52.90
2023-04-19T20:20:31.862Z,52.80
2023-04-19T20:22:59.733Z,52.80
2023-04-19T20:25:27.733Z,52.80
2023-04-19T20:27:56.972Z,52.80
2023-04-19T20:30:25.104Z,52.80
2023-04-19T20:32:52.999Z,52.80
2023-04-19T20:35:21.134Z,52.80
2023-04-19T20:37:50.898Z,52.80
2023-04-19T20:40:19.033Z,52.80
2023-04-19T20:42:46.952Z,52.80
2023-04-19T20:45:15.189Z,52.80
2023-04-19T20:47:43.371Z,52.80
2023-04-19T20:50:11.898Z,52.80
2023-04-19T20:52:39.790Z,52.80
2023-04-19T20:55:10.089Z,52.80
2023-04-19T20:57:37.959Z,52.80
2023-04-19T21:00:08.047Z,52.80
2023-04-19T21:02:36.106Z,52.80
2023-04-19T21:05:04.103Z,52.70
2023-04-19T21:07:32.010Z,52.80
2023-04-19T21:09:59.977Z,52.70
2023-04-19T21:12:29.212Z,52.70
2023-04-19T21:14:57.156Z,52.70
2023-04-19T21:17:25.075Z,52.70
2023-04-19T21:19:53.021Z,52.70
2023-04-19T21:22:20.930Z,52.70
2023-04-19T21:24:48.832Z,52.70
2023-04-19T21:27:16.773Z,52.70
2023-04-19T21:29:46.109Z,52.70
2023-04-19T21:32:14.138Z,52.70
2023-04-19T21:34:42.020Z,52.70
2023-04-19T21:37:09.937Z,52.70
2023-04-19T21:39:37.823Z,52.70
2023-04-19T21:42:05.693Z,52.70
2023-04-19T21:44:35.900Z,52.60
2023-04-19T21:47:05.177Z,52.60
2023-04-19T21:49:33.937Z,52.60
2023-04-19T21:52:01.875Z,52.60
2023-04-19T21:54:33.816Z,52.60
2023-04-19T21:57:02.704Z,52.60
2023-04-19T21:59:31.338Z,52.60
2023-04-19T22:02:00.200Z,52.60
2023-04-19T22:04:30.716Z,52.60
2023-04-19T22:07:02.205Z,52.60
2023-04-19T22:09:30.759Z,52.60
2023-04-19T22:11:59.369Z,52.60
2023-04-19T22:14:27.754Z,52.60
2023-04-19T22:16:56.394Z,52.60
2023-04-19T22:19:24.854Z,52.60
2023-04-19T22:21:55.079Z,52.60
2023-04-19T22:24:23.153Z,52.60
2023-04-19T22:26:52.925Z,52.60
2023-04-19T22:29:21.425Z,52.60
2023-04-19T22:31:49.531Z,52.50
2023-04-19T22:34:17.491Z,52.50
2023-04-19T22:36:45.846Z,52.60
2023-04-19T22:39:15.929Z,52.50
2023-04-19T22:41:43.989Z,52.50
2023-04-19T22:44:11.957Z,52.50
2023-04-19T22:46:39.904Z,52.50
2023-04-19T22:49:08.455Z,52.50
2023-04-19T22:51:36.655Z,52.50
2023-04-19T22:54:04.843Z,52.50
2023-04-19T22:56:34.077Z,52.50
2023-04-19T22:59:01.929Z,52.50
2023-04-19T23:01:29.815Z,52.50
2023-04-19T23:03:57.824Z,52.50
2023-04-19T23:06:25.800Z,52.50
2023-04-19T23:08:53.800Z,52.50
2023-04-19T23:11:24.830Z,52.40
2023-04-19T23:13:54.165Z,52.50
2023-04-19T23:16:24.184Z,52.50
2023-04-19T23:18:52.251Z,52.50
2023-04-19T23:21:20.186Z,53.00
2023-04-19T23:23:48.099Z,52.40
2023-04-19T23:26:15.970Z,52.50
2023-04-19T23:28:43.868Z,52.50
2023-04-19T23:31:13.174Z,52.40
2023-04-19T23:33:41.104Z,52.40
2023-04-19T23:36:09.486Z,52.40
2023-04-19T23:38:37.350Z,52.40
2023-04-19T23:41:05.278Z,52.40
2023-04-19T23:43:33.137Z,52.40
2023-04-19T23:46:01.235Z,52.30
2023-04-19T23:48:30.639Z,52.40
2023-04-19T23:50:58.487Z,52.40
2023-04-19T23:53:26.381Z,52.40
2023-04-19T23:55:54.334Z,52.40
2023-04-19T23:58:22.309Z,52.30
